Time;durP1;ratioP1;P1;durP2;ratioP2;P2;SDS_P1;SDS_P2;PMS_P1;PMS_P2;Temp;Humidity;BMP_temperature;BMP_pressure;BME280_temperature;BME280_humidity;BME280_pressure;Samples;Min_cycle;Max_cycle;Signal;HPM_P1;HPM_P2
2021/06/12 00:01:30;;;;;;;10.68;9.68;;;;;;;;;;5054727;28;20080;-71
2021/06/12 00:03:57;;;;;;;11.70;9.70;;;;;;;;;;5054723;28;20482;-71
2021/06/12 00:06:24;;;;;;;12.98;10.20;;;;;;;;;;5054335;28;20083;-71
2021/06/12 00:08:50;;;;;;;10.02;9.02;;;;;;;;;;5054674;28;20092;-71
2021/06/12 00:11:17;;;;;;;10.73;9.73;;;;;;;;;;5054594;28;20095;-71
2021/06/12 00:13:43;;;;;;;10.38;9.30;;;;;;;;;;5054440;28;20084;-71
2021/06/12 00:16:10;;;;;;;11.70;9.52;;;;;;;;;;5054568;28;20087;-71
2021/06/12 00:18:36;;;;;;;10.80;9.70;;;;;;;;;;5054532;28;20097;-71
2021/06/12 00:21:03;;;;;;;11.25;10.18;;;;;;;;;;5054626;28;20479;-71
2021/06/12 00:23:30;;;;;;;10.57;9.48;;;;;;;;;;5052661;28;20515;-71
2021/06/12 00:25:56;;;;;;;11.93;10.00;;;;;;;;;;5054305;28;20084;-71
2021/06/12 00:28:23;;;;;;;10.80;9.82;;;;;;;;;;5054195;28;20092;-71
2021/06/12 00:30:49;;;;;;;10.40;9.45;;;;;;;;;;5054195;28;20088;-70
2021/06/12 00:33:16;;;;;;;10.20;9.30;;;;;;;;;;5054206;28;20056;-71
2021/06/12 00:35:43;;;;;;;10.73;9.63;;;;;;;;;;5053902;28;20083;-71
2021/06/12 00:38:10;;;;;;;9.88;8.98;;;;;;;;;;5054133;28;20092;-72
2021/06/12 00:40:37;;;;;;;11.40;10.25;;;;;;;;;;5053984;28;20475;-71
2021/06/12 00:43:04;;;;;;;11.27;10.20;;;;;;;;;;5053830;28;20095;-71
2021/06/12 00:45:32;;;;;;;10.88;9.88;;;;;;;;;;5053752;28;20089;-71
2021/06/12 00:47:58;;;;;;;11.07;9.98;;;;;;;;;;5052848;28;20045;-71
2021/06/12 00:50:31;;;;;;;11.63;10.52;;;;;;;;;;5053952;28;20076;-70
2021/06/12 00:53:00;;;;;;;12.55;11.35;;;;;;;;;;5053828;28;20079;-71
2021/06/12 00:55:28;;;;;;;13.70;11.88;;;;;;;;;;5053294;28;20048;-71
2021/06/12 00:57:54;;;;;;;12.10;10.48;;;;;;;;;;5052351;28;20311;-70
2021/06/12 01:00:22;;;;;;;12.32;11.02;;;;;;;;;;5052516;28;20049;-71
2021/06/12 01:02:48;;;;;;;12.98;11.30;;;;;;;;;;5053693;28;20073;-70
2021/06/12 01:05:17;;;;;;;12.23;11.10;;;;;;;;;;5053482;28;20049;-71
2021/06/12 01:07:44;;;;;;;12.35;11.20;;;;;;;;;;5053539;28;20524;-71
2021/06/12 01:10:12;;;;;;;11.55;10.55;;;;;;;;;;5053512;28;20136;-71
2021/06/12 01:12:41;;;;;;;12.70;11.50;;;;;;;;;;5053269;28;20144;-70
2021/06/12 01:15:10;;;;;;;12.77;11.55;;;;;;;;;;5053468;28;20048;-71
2021/06/12 01:17:48;;;;;;;13.15;11.85;;;;;;;;;;5035964;28;20082;-70
2021/06/12 01:20:42;;;;;;;12.48;11.38;;;;;;;;;;5036695;28;20350;-71
2021/06/12 01:23:09;;;;;;;12.73;11.52;;;;;;;;;;5052934;28;20080;-71
2021/06/12 01:25:57;;;;;;;13.07;11.88;;;;;;;;;;5053052;28;20076;-70
2021/06/12 01:28:39;;;;;;;13.15;11.75;;;;;;;;;;5052001;28;20054;-70
2021/06/12 01:31:05;;;;;;;15.18;11.70;;;;;;;;;;5053236;28;20128;-71
2021/06/12 01:33:32;;;;;;;13.60;12.27;;;;;;;;;;5051834;28;20396;-71
2021/06/12 01:36:04;;;;;;;12.30;11.13;;;;;;;;;;5051595;28;20079;-71
2021/06/12 01:38:32;;;;;;;12.95;11.65;;;;;;;;;;5052979;28;20076;-71
2021/06/12 01:41:02;;;;;;;12.30;11.00;;;;;;;;;;5035496;28;20077;-71
2021/06/12 01:43:30;;;;;;;16.63;11.63;;;;;;;;;;5051453;28;20519;-71
2021/06/12 01:45:57;;;;;;;12.13;10.93;;;;;;;;;;5035187;28;20087;-71
2021/06/12 01:48:24;;;;;;;12.48;11.20;;;;;;;;;;5051554;28;20045;-71
2021/06/12 01:50:50;;;;;;;13.75;12.35;;;;;;;;;;5035045;28;20084;-70
2021/06/12 01:53:18;;;;;;;13.75;11.40;;;;;;;;;;5051157;28;20048;-70
2021/06/12 01:55:46;;;;;;;13.02;10.98;;;;;;;;;;5035197;28;20072;-71
2021/06/12 01:58:21;;;;;;;12.55;11.38;;;;;;;;;;5052733;28;20084;-71
2021/06/12 02:00:47;;;;;;;11.73;10.50;;;;;;;;;;5034823;28;20084;-70
2021/06/12 02:03:14;;;;;;;12.43;11.13;;;;;;;;;;5051206;28;20084;-72
2021/06/12 02:05:41;;;;;;;12.98;11.70;;;;;;;;;;5052221;28;20088;-71
2021/06/12 02:08:08;;;;;;;12.00;10.90;;;;;;;;;;5034388;28;20522;-70
2021/06/12 02:10:35;;;;;;;13.15;11.85;;;;;;;;;;5052256;28;20057;-71
2021/06/12 02:13:02;;;;;;;14.23;12.68;;;;;;;;;;5050992;28;20084;-71
2021/06/12 02:15:30;;;;;;;14.07;12.65;;;;;;;;;;5050917;28;20076;-71
2021/06/12 02:18:04;;;;;;;13.00;11.77;;;;;;;;;;5052247;28;20088;-71
2021/06/12 02:20:32;;;;;;;14.45;12.13;;;;;;;;;;5052077;28;20531;-70
2021/06/12 02:22:59;;;;;;;13.13;11.93;;;;;;;;;;5034455;28;20080;-71
2021/06/12 02:25:25;;;;;;;14.60;13.15;;;;;;;;;;5050827;28;20103;-70
2021/06/12 02:27:55;;;;;;;14.02;12.70;;;;;;;;;;5052201;28;20072;-70
2021/06/12 02:30:25;;;;;;;14.50;12.07;;;;;;;;;;5051930;28;20048;-70
2021/06/12 02:33:01;;;;;;;15.05;13.35;;;;;;;;;;5051677;28;20068;-71
2021/06/12 02:35:28;;;;;;;14.45;13.05;;;;;;;;;;5050654;28;20080;-70
2021/06/12 02:37:55;;;;;;;14.15;12.57;;;;;;;;;;5051760;28;20080;-72
2021/06/12 02:40:23;;;;;;;12.93;11.73;;;;;;;;;;5051887;28;20136;-72
2021/06/12 02:42:50;;;;;;;14.18;12.52;;;;;;;;;;5051985;28;20044;-71
2021/06/12 02:45:17;;;;;;;14.07;12.70;;;;;;;;;;5051777;28;20072;-71
2021/06/12 02:47:52;;;;;;;14.35;12.85;;;;;;;;;;5051754;28;20525;-71
2021/06/12 02:50:20;;;;;;;14.25;11.75;;;;;;;;;;5035229;28;20053;-71
2021/06/12 02:52:47;;;;;;;12.23;11.05;;;;;;;;;;5050822;28;20175;-71
2021/06/12 02:55:14;;;;;;;14.77;12.40;;;;;;;;;;5034007;28;20076;-71
2021/06/12 02:57:46;;;;;;;13.63;12.07;;;;;;;;;;5034286;28;20087;-71
2021/06/12 03:00:13;;;;;;;13.60;12.43;;;;;;;;;;5034702;28;20073;-71
2021/06/12 03:02:41;;;;;;;13.50;12.10;;;;;;;;;;5051501;28;20315;-72
2021/06/12 03:05:14;;;;;;;13.50;12.20;;;;;;;;;;5050314;28;20473;-72
2021/06/12 03:07:44;;;;;;;13.85;12.35;;;;;;;;;;5034569;28;20507;-71
2021/06/12 03:10:11;;;;;;;13.50;12.07;;;;;;;;;;5050464;28;20092;-71
2021/06/12 03:12:38;;;;;;;13.00;11.70;;;;;;;;;;5033731;28;20102;-71
2021/06/12 03:15:05;;;;;;;12.27;11.18;;;;;;;;;;5050312;28;20049;-70
2021/06/12 03:17:32;;;;;;;13.82;12.43;;;;;;;;;;5050646;28;20144;-71
2021/06/12 03:19:58;;;;;;;13.13;11.82;;;;;;;;;;5037827;28;20505;-71
2021/06/12 03:22:25;;;;;;;12.35;11.13;;;;;;;;;;5054132;28;20555;-70
2021/06/12 03:24:52;;;;;;;12.65;11.45;;;;;;;;;;5055591;28;20049;-72
2021/06/12 03:27:20;;;;;;;15.30;12.68;;;;;;;;;;5037675;28;20080;-71
2021/06/12 03:29:47;;;;;;;12.75;11.55;;;;;;;;;;5054360;28;20099;-71
2021/06/12 03:32:14;;;;;;;14.02;12.73;;;;;;;;;;5037640;28;20132;-71
2021/06/12 03:34:40;;;;;;;13.95;12.55;;;;;;;;;;5037578;28;20492;-70
2021/06/12 03:37:07;;;;;;;13.50;12.10;;;;;;;;;;5053834;28;20052;-71
2021/06/12 03:39:34;;;;;;;14.70;12.65;;;;;;;;;;5055220;28;20102;-71
2021/06/12 03:42:00;;;;;;;13.25;11.88;;;;;;;;;;5053970;28;20496;-70
2021/06/12 03:44:27;;;;;;;14.75;13.25;;;;;;;;;;5037386;28;20526;-69
2021/06/12 03:46:53;;;;;;;14.20;12.20;;;;;;;;;;5037353;28;20080;-69
2021/06/12 03:49:20;;;;;;;14.48;12.65;;;;;;;;;;5053819;28;20107;-69
2021/06/12 03:51:47;;;;;;;13.30;11.85;;;;;;;;;;5053674;28;20083;-70
2021/06/12 03:54:14;;;;;;;14.48;12.32;;;;;;;;;;5053713;28;20087;-70
2021/06/12 03:56:40;;;;;;;13.60;12.10;;;;;;;;;;5053666;28;20080;-70
2021/06/12 03:59:10;;;;;;;13.98;12.40;;;;;;;;;;5053735;28;20049;-69
2021/06/12 04:01:37;;;;;;;14.65;12.15;;;;;;;;;;5054574;28;20456;-70
2021/06/12 04:04:04;;;;;;;13.30;12.10;;;;;;;;;;5054600;28;20492;-69
2021/06/12 04:06:30;;;;;;;12.60;11.40;;;;;;;;;;5054552;28;20471;-70
2021/06/12 04:08:57;;;;;;;14.45;12.90;;;;;;;;;;5053681;28;20429;-70
2021/06/12 04:11:23;;;;;;;19.85;11.70;;;;;;;;;;5054564;28;20427;-70
2021/06/12 04:13:50;;;;;;;13.13;11.88;;;;;;;;;;5054537;28;20045;-70
2021/06/12 04:16:17;;;;;;;13.70;12.35;;;;;;;;;;5054310;28;20526;-69
2021/06/12 04:18:44;;;;;;;12.48;11.27;;;;;;;;;;5054419;28;20053;-70
2021/06/12 04:21:10;;;;;;;13.43;11.57;;;;;;;;;;5054388;28;20049;-71
2021/06/12 04:23:37;;;;;;;14.43;11.52;;;;;;;;;;5054111;28;20466;-71
2021/06/12 04:26:03;;;;;;;13.77;11.10;;;;;;;;;;5054268;28;20135;-71
2021/06/12 04:28:30;;;;;;;13.13;11.68;;;;;;;;;;5054180;28;20053;-71
2021/06/12 04:30:57;;;;;;;12.15;10.95;;;;;;;;;;5053670;28;20056;-70
2021/06/12 04:33:23;;;;;;;13.43;11.52;;;;;;;;;;5054018;28;20063;-70
2021/06/12 04:35:50;;;;;;;12.90;11.57;;;;;;;;;;5054257;28;20308;-69
2021/06/12 04:38:16;;;;;;;13.50;12.02;;;;;;;;;;5053552;28;20084;-69
2021/06/12 04:40:43;;;;;;;13.90;12.48;;;;;;;;;;5053912;28;20488;-69
2021/06/12 04:43:12;;;;;;;13.38;11.15;;;;;;;;;;5053690;28;20512;-68
2021/06/12 04:45:39;;;;;;;13.38;11.98;;;;;;;;;;5053784;28;20091;-69
2021/06/12 04:48:06;;;;;;;14.27;11.13;;;;;;;;;;5054065;28;20091;-68
2021/06/12 04:50:36;;;;;;;12.50;11.30;;;;;;;;;;5053957;28;20135;-69
2021/06/12 04:53:04;;;;;;;12.70;11.43;;;;;;;;;;5053983;28;20127;-69
2021/06/12 04:55:32;;;;;;;16.65;11.85;;;;;;;;;;5053768;28;20052;-68
2021/06/12 04:57:58;;;;;;;17.98;12.50;;;;;;;;;;5054063;28;20481;-68
2021/06/12 05:00:25;;;;;;;13.85;12.55;;;;;;;;;;5053320;28;20476;-69
2021/06/12 05:02:51;;;;;;;13.40;11.52;;;;;;;;;;5053276;28;20076;-69
2021/06/12 05:05:19;;;;;;;15.45;12.25;;;;;;;;;;5053584;28;20111;-69
2021/06/12 05:07:45;;;;;;;13.35;12.05;;;;;;;;;;5053444;28;20128;-69
2021/06/12 05:10:12;;;;;;;12.30;11.10;;;;;;;;;;5053694;28;20052;-69
2021/06/12 05:12:39;;;;;;;12.43;11.23;;;;;;;;;;5053347;28;20561;-69
2021/06/12 05:15:07;;;;;;;12.95;11.75;;;;;;;;;;5053431;28;20055;-69
2021/06/12 05:17:34;;;;;;;12.93;11.73;;;;;;;;;;5053379;28;20075;-69
2021/06/12 05:20:01;;;;;;;12.07;10.98;;;;;;;;;;5053864;28;20075;-69
2021/06/12 05:22:28;;;;;;;12.13;10.95;;;;;;;;;;5052618;28;20044;-69
2021/06/12 05:24:56;;;;;;;13.32;12.13;;;;;;;;;;5053247;28;20496;-69
2021/06/12 05:27:23;;;;;;;12.32;10.80;;;;;;;;;;5052878;28;20182;-69
2021/06/12 05:29:50;;;;;;;11.35;10.35;;;;;;;;;;5053197;28;20088;-69
2021/06/12 05:32:16;;;;;;;11.77;10.57;;;;;;;;;;5053024;28;20053;-69
2021/06/12 05:34:43;;;;;;;11.63;10.63;;;;;;;;;;5053051;28;20049;-69
2021/06/12 05:37:11;;;;;;;12.07;10.88;;;;;;;;;;5052854;28;20049;-69
2021/06/12 05:39:37;;;;;;;12.13;10.77;;;;;;;;;;5052741;28;20586;-69
2021/06/12 05:42:04;;;;;;;11.43;10.18;;;;;;;;;;5051699;28;20053;-69
2021/06/12 05:44:31;;;;;;;11.75;10.55;;;;;;;;;;5052602;28;20106;-69
2021/06/12 05:46:57;;;;;;;11.27;9.90;;;;;;;;;;5052670;28;20136;-69
2021/06/12 05:49:24;;;;;;;11.27;10.27;;;;;;;;;;5052782;28;20051;-69
2021/06/12 05:51:50;;;;;;;10.70;9.80;;;;;;;;;;5052740;28;20080;-69
2021/06/12 05:54:17;;;;;;;11.85;10.30;;;;;;;;;;5052494;28;20149;-69
2021/06/12 05:56:44;;;;;;;10.18;9.15;;;;;;;;;;5052420;28;20087;-69
2021/06/12 05:59:10;;;;;;;11.57;10.32;;;;;;;;;;5052617;28;20053;-70
2021/06/12 06:01:37;;;;;;;10.27;9.10;;;;;;;;;;5052429;28;20135;-69
2021/06/12 06:04:04;;;;;;;10.30;9.18;;;;;;;;;;5052974;28;20110;-69
2021/06/12 06:06:30;;;;;;;11.25;9.02;;;;;;;;;;5052497;28;20303;-70
2021/06/12 06:08:57;;;;;;;10.77;9.25;;;;;;;;;;5052373;28;20084;-70
2021/06/12 06:11:23;;;;;;;10.27;9.27;;;;;;;;;;5052551;28;20080;-70
2021/06/12 06:13:50;;;;;;;10.43;9.25;;;;;;;;;;5053020;28;20084;-71
2021/06/12 06:16:16;;;;;;;11.77;10.68;;;;;;;;;;5048049;28;20493;-71
2021/06/12 06:18:43;;;;;;;10.57;9.57;;;;;;;;;;5050379;28;20060;-71
2021/06/12 06:21:10;;;;;;;11.05;9.15;;;;;;;;;;5050148;28;20512;-72
2021/06/12 06:23:37;;;;;;;11.15;9.95;;;;;;;;;;5049956;28;20045;-71
2021/06/12 06:26:04;;;;;;;11.23;10.20;;;;;;;;;;5050025;28;20128;-72
2021/06/12 06:28:30;;;;;;;9.27;8.43;;;;;;;;;;5049744;28;20134;-72
2021/06/12 06:30:57;;;;;;;11.68;10.57;;;;;;;;;;5050247;28;20080;-71
2021/06/12 06:33:24;;;;;;;10.63;9.60;;;;;;;;;;5049816;28;20088;-71
2021/06/12 06:35:52;;;;;;;12.20;10.95;;;;;;;;;;5049603;28;20057;-71
2021/06/12 06:38:19;;;;;;;10.30;9.40;;;;;;;;;;5049684;28;20091;-71
2021/06/12 06:40:46;;;;;;;10.35;9.32;;;;;;;;;;5049415;28;20060;-71
2021/06/12 06:43:13;;;;;;;9.80;8.27;;;;;;;;;;5049968;28;20084;-71
2021/06/12 06:45:43;;;;;;;9.40;8.40;;;;;;;;;;5050141;28;20084;-72
2021/06/12 06:48:12;;;;;;;9.77;8.25;;;;;;;;;;5049906;28;20083;-72
2021/06/12 06:50:40;;;;;;;11.82;10.65;;;;;;;;;;5049423;28;20049;-72
2021/06/12 06:53:06;;;;;;;10.82;9.82;;;;;;;;;;5048540;28;20096;-71
2021/06/12 06:55:33;;;;;;;11.43;9.00;;;;;;;;;;5047982;28;20092;-71
2021/06/12 06:58:00;;;;;;;10.98;9.90;;;;;;;;;;5047936;28;20381;-70
2021/06/12 07:00:27;;;;;;;9.60;8.68;;;;;;;;;;5049338;28;20071;-70
2021/06/12 07:02:54;;;;;;;13.93;8.65;;;;;;;;;;5049121;28;20136;-70
2021/06/12 07:05:21;;;;;;;8.98;8.07;;;;;;;;;;5050742;28;20128;-67
2021/06/12 07:07:48;;;;;;;9.45;8.50;;;;;;;;;;5051640;28;20080;-71
2021/06/12 07:10:15;;;;;;;9.05;8.25;;;;;;;;;;5050750;28;20048;-69
2021/06/12 07:12:42;;;;;;;8.90;8.10;;;;;;;;;;5051305;28;20498;-70
2021/06/12 07:15:10;;;;;;;11.02;7.90;;;;;;;;;;5051468;28;20137;-70
2021/06/12 07:17:36;;;;;;;7.93;7.10;;;;;;;;;;5051242;28;20080;-69
2021/06/12 07:20:05;;;;;;;8.68;7.28;;;;;;;;;;5051440;28;20124;-72
2021/06/12 07:22:32;;;;;;;7.65;7.05;;;;;;;;;;5051108;28;20092;-69
2021/06/12 07:24:58;;;;;;;7.53;6.90;;;;;;;;;;5050577;28;20081;-71
2021/06/12 07:27:25;;;;;;;6.50;5.75;;;;;;;;;;5050478;28;20047;-69
2021/06/12 07:29:51;;;;;;;7.15;6.28;;;;;;;;;;5050202;28;20136;-68
2021/06/12 07:32:18;;;;;;;7.05;6.45;;;;;;;;;;5051227;28;20475;-68
2021/06/12 07:34:44;;;;;;;9.93;6.80;;;;;;;;;;5051099;28;20503;-69
2021/06/12 07:37:11;;;;;;;6.85;5.95;;;;;;;;;;5051184;28;20099;-69
2021/06/12 07:39:37;;;;;;;6.85;6.25;;;;;;;;;;5050838;28;20085;-68
2021/06/12 07:42:04;;;;;;;7.22;6.32;;;;;;;;;;5050023;28;20085;-68
2021/06/12 07:44:31;;;;;;;6.47;5.35;;;;;;;;;;5051028;28;20088;-68
2021/06/12 07:46:57;;;;;;;6.90;6.25;;;;;;;;;;5051292;28;20182;-68
2021/06/12 07:49:24;;;;;;;5.95;5.35;;;;;;;;;;5050965;28;20483;-69
2021/06/12 07:51:51;;;;;;;5.90;5.35;;;;;;;;;;5051157;28;20449;-68
2021/06/12 07:54:19;;;;;;;5.80;5.32;;;;;;;;;;5050884;28;20504;-68
2021/06/12 07:56:45;;;;;;;5.85;5.32;;;;;;;;;;5050737;28;20088;-68
2021/06/12 07:59:12;;;;;;;6.15;5.45;;;;;;;;;;5051112;28;20085;-68
2021/06/12 08:01:38;;;;;;;5.18;4.68;;;;;;;;;;5050797;28;20087;-68
2021/06/12 08:04:05;;;;;;;8.07;5.35;;;;;;;;;;5049760;28;20128;-67
2021/06/12 08:06:32;;;;;;;5.65;5.05;;;;;;;;;;5054257;28;20131;-68
2021/06/12 08:08:58;;;;;;;5.55;4.85;;;;;;;;;;5054552;28;20132;-68
2021/06/12 08:11:25;;;;;;;5.53;5.03;;;;;;;;;;5054869;28;20095;-67
2021/06/12 08:13:52;;;;;;;7.40;6.28;;;;;;;;;;5054719;28;20492;-67
2021/06/12 08:16:18;;;;;;;6.00;5.50;;;;;;;;;;5054577;28;20080;-69
2021/06/12 08:18:45;;;;;;;7.30;6.22;;;;;;;;;;5054021;28;20077;-68
2021/06/12 08:21:11;;;;;;;10.65;6.22;;;;;;;;;;5054309;28;20052;-69
2021/06/12 08:23:38;;;;;;;7.22;6.45;;;;;;;;;;5054189;28;20053;-69
2021/06/12 08:26:04;;;;;;;8.00;5.65;;;;;;;;;;5054604;28;20078;-69
2021/06/12 08:28:31;;;;;;;7.43;5.68;;;;;;;;;;5054162;28;20136;-69
2021/06/12 08:30:58;;;;;;;6.53;5.85;;;;;;;;;;5054368;28;20080;-68
2021/06/12 08:33:25;;;;;;;8.32;6.00;;;;;;;;;;5053950;28;20049;-74
2021/06/12 08:35:52;;;;;;;7.40;5.82;;;;;;;;;;5053760;28;20081;-68
2021/06/12 08:38:22;;;;;;;13.32;7.57;;;;;;;;;;5054134;28;20419;-68
2021/06/12 08:40:49;;;;;;;13.63;7.95;;;;;;;;;;5054063;28;20084;-68
2021/06/12 08:43:25;;;;;;;10.07;7.28;;;;;;;;;;5054080;28;20462;-69
2021/06/12 08:45:51;;;;;;;7.35;6.72;;;;;;;;;;5053936;28;20085;-67
2021/06/12 08:48:18;;;;;;;8.95;7.80;;;;;;;;;;5053511;28;20045;-69
2021/06/12 08:50:45;;;;;;;7.07;6.40;;;;;;;;;;5026177;28;20049;-73
2021/06/12 08:53:11;;;;;;;6.38;5.68;;;;;;;;;;5042163;28;20504;-69
2021/06/12 08:55:42;;;;;;;6.20;5.10;;;;;;;;;;5040925;28;20133;-68
2021/06/12 08:58:09;;;;;;;5.78;4.43;;;;;;;;;;5046062;28;20451;-71
2021/06/12 09:00:36;;;;;;;7.10;5.13;;;;;;;;;;5043696;28;20049;-70
2021/06/12 09:03:06;;;;;;;7.53;4.40;;;;;;;;;;5038261;28;20049;-71
2021/06/12 09:05:52;;;;;;;4.30;3.90;;;;;;;;;;5041909;28;20110;-70
2021/06/12 09:08:30;;;;;;;5.07;4.43;;;;;;;;;;5038587;28;20077;-71
2021/06/12 09:11:10;;;;;;;4.10;3.80;;;;;;;;;;4875600;28;27963;-70
2021/06/12 09:13:47;;;;;;;4.47;3.97;;;;;;;;;;5026661;28;20076;-69
2021/06/12 09:16:23;;;;;;;5.68;3.80;;;;;;;;;;5024526;28;20096;-70
2021/06/12 09:19:22;;;;;;;3.50;3.20;;;;;;;;;;5020444;28;20045;-71
2021/06/12 09:21:59;;;;;;;2.75;2.55;;;;;;;;;;5018199;28;20512;-70
2021/06/12 09:24:31;;;;;;;5.07;2.58;;;;;;;;;;5021964;28;20080;-71
2021/06/12 09:27:03;;;;;;;4.07;2.70;;;;;;;;;;5021857;28;20050;-72
2021/06/12 09:29:36;;;;;;;4.70;2.70;;;;;;;;;;5018117;28;20050;-71
2021/06/12 09:32:10;;;;;;;3.97;2.88;;;;;;;;;;5017405;28;20049;-71
2021/06/12 09:34:37;;;;;;;2.70;2.50;;;;;;;;;;5018471;28;20110;-70
2021/06/12 09:37:12;;;;;;;2.92;2.30;;;;;;;;;;5019037;28;20085;-71
2021/06/12 09:39:42;;;;;;;5.32;2.22;;;;;;;;;;5020154;28;20081;-71
2021/06/12 09:42:09;;;;;;;3.72;2.42;;;;;;;;;;5022966;28;20182;-68
2021/06/12 09:44:38;;;;;;;2.78;2.28;;;;;;;;;;5020388;28;20088;-68
2021/06/12 09:47:10;;;;;;;5.25;3.10;;;;;;;;;;5018791;28;20081;-68
2021/06/12 09:49:38;;;;;;;2.90;2.60;;;;;;;;;;5018840;28;20045;-68
2021/06/12 09:52:14;;;;;;;2.92;2.70;;;;;;;;;;5020118;28;20081;-68
2021/06/12 09:54:42;;;;;;;3.80;2.53;;;;;;;;;;5018729;28;20088;-69
2021/06/12 09:57:10;;;;;;;4.70;2.65;;;;;;;;;;5020333;28;20081;-68
2021/06/12 09:59:45;;;;;;;5.40;3.05;;;;;;;;;;5018555;28;20535;-68
2021/06/12 10:02:12;;;;;;;5.88;2.72;;;;;;;;;;5021514;28;20077;-68
2021/06/12 10:04:57;;;;;;;4.68;2.70;;;;;;;;;;5020447;28;20082;-68
2021/06/12 10:07:24;;;;;;;3.20;2.90;;;;;;;;;;5018593;28;20128;-68
2021/06/12 10:09:52;;;;;;;3.10;2.78;;;;;;;;;;5010258;28;20127;-71
2021/06/12 10:12:19;;;;;;;2.78;2.28;;;;;;;;;;5019382;28;20084;-72
2021/06/12 10:14:46;;;;;;;5.57;3.28;;;;;;;;;;5020798;28;20046;-68
2021/06/12 10:17:13;;;;;;;3.10;2.50;;;;;;;;;;5019432;28;20092;-69
2021/06/12 10:19:43;;;;;;;2.92;2.65;;;;;;;;;;5016685;28;20053;-69
2021/06/12 10:22:10;;;;;;;3.13;2.83;;;;;;;;;;5059452;23;20465;-67
2021/06/12 10:24:39;;;;;;;9.30;3.20;;;;;;;;;;5062668;28;20418;-68
2021/06/12 10:27:07;;;;;;;3.70;2.67;;;;;;;;;;5057209;28;20091;-65
2021/06/12 10:29:33;;;;;;;4.38;2.67;;;;;;;;;;5057002;28;20064;-68
2021/06/12 10:32:01;;;;;;;7.15;2.70;;;;;;;;;;5057465;28;20418;-67
2021/06/12 10:34:29;;;;;;;4.28;2.78;;;;;;;;;;5022948;28;20440;-65
2021/06/12 10:37:06;;;;;;;2.65;2.45;;;;;;;;;;5057101;28;20135;-67
2021/06/12 10:39:35;;;;;;;3.20;2.90;;;;;;;;;;5058353;28;20081;-68
2021/06/12 10:42:16;;;;;;;4.35;2.80;;;;;;;;;;5056339;28;20049;-68
2021/06/12 10:44:47;;;;;;;6.25;2.78;;;;;;;;;;5060312;28;20088;-67
2021/06/12 10:47:29;;;;;;;2.47;2.10;;;;;;;;;;5058284;28;20077;-68
2021/06/12 10:49:55;;;;;;;5.78;2.45;;;;;;;;;;5039168;28;20077;-68
2021/06/12 10:52:41;;;;;;;4.30;2.60;;;;;;;;;;5045086;28;20068;-67
2021/06/12 10:55:40;;;;;;;2.50;2.30;;;;;;;;;;5063019;28;20048;-67
2021/06/12 10:58:33;;;;;;;3.78;2.20;;;;;;;;;;5068533;28;20113;-66
2021/06/12 11:01:06;;;;;;;;;;;;;;;;;;5065845;28;20080;-67
2021/06/12 11:06:48;;;;;;;6.20;2.60;;;;;;;;;;5062373;28;20079;-67
2021/06/12 11:09:15;;;;;;;4.10;2.60;;;;;;;;;;5050765;28;20136;-67
2021/06/12 11:11:45;;;;;;;3.90;2.83;;;;;;;;;;5056294;28;20057;-67
2021/06/12 11:14:23;;;;;;;2.72;2.45;;;;;;;;;;5051390;28;20239;-69
2021/06/12 11:17:12;;;;;;;2.58;2.38;;;;;;;;;;5052665;28;20487;-67
2021/06/12 11:20:10;;;;;;;4.07;2.70;;;;;;;;;;5054244;28;20186;-68
2021/06/12 11:22:41;;;;;;;7.90;2.80;;;;;;;;;;5055393;28;20048;-67
2021/06/12 11:25:07;;;;;;;3.13;2.50;;;;;;;;;;5054120;28;20611;-69
2021/06/12 11:27:40;;;;;;;4.07;2.47;;;;;;;;;;5054500;28;20700;-67
2021/06/12 11:30:13;;;;;;;1.80;1.70;;;;;;;;;;5060081;28;20077;-67
2021/06/12 11:32:58;;;;;;;2.45;2.25;;;;;;;;;;5058794;28;20053;-66
2021/06/12 11:35:41;;;;;;;3.47;2.20;;;;;;;;;;5060235;28;20052;-66
2021/06/12 11:38:09;;;;;;;3.42;1.92;;;;;;;;;;5057216;28;20049;-68
2021/06/12 11:40:36;;;;;;;3.17;1.75;;;;;;;;;;5061623;28;20048;-66
2021/06/12 11:43:03;;;;;;;3.83;2.22;;;;;;;;;;5060606;28;20079;-69
2021/06/12 11:45:32;;;;;;;1.98;1.70;;;;;;;;;;5062023;28;20041;-66
2021/06/12 11:48:15;;;;;;;2.67;1.60;;;;;;;;;;5059460;28;20049;-69
2021/06/12 11:50:42;;;;;;;2.33;2.13;;;;;;;;;;5056296;28;20080;-68
2021/06/12 11:53:15;;;;;;;3.20;2.40;;;;;;;;;;5065160;28;20071;-67
2021/06/12 11:55:42;;;;;;;3.72;2.45;;;;;;;;;;5061403;28;20045;-66
2021/06/12 11:58:09;;;;;;;2.72;1.85;;;;;;;;;;5057842;28;20483;-77
2021/06/12 12:00:37;;;;;;;3.67;2.17;;;;;;;;;;5053228;28;20044;-67
2021/06/12 12:03:06;;;;;;;2.85;2.00;;;;;;;;;;5058221;28;20108;-68
2021/06/12 12:05:39;;;;;;;2.28;2.08;;;;;;;;;;5063931;28;20048;-67
2021/06/12 12:08:12;;;;;;;3.60;2.03;;;;;;;;;;5057075;28;20049;-67
2021/06/12 12:10:39;;;;;;;;;;;;;;;;;;5062100;28;20127;-66
2021/06/12 12:13:06;;;;;;;2.63;2.10;;;;;;;;;;5059061;28;19956;-68
2021/06/12 12:15:43;;;;;;;4.65;1.73;;;;;;;;;;5060647;28;20040;-66
2021/06/12 12:18:11;;;;;;;1.83;1.58;;;;;;;;;;5061100;28;20098;-68
2021/06/12 12:20:39;;;;;;;3.17;1.52;;;;;;;;;;5057306;28;20080;-69
2021/06/12 12:23:28;;;;;;;1.85;1.65;;;;;;;;;;5059702;28;20075;-69
2021/06/12 12:26:27;;;;;;;3.83;1.73;;;;;;;;;;5060230;28;20070;-66
2021/06/12 12:28:58;;;;;;;3.50;1.40;;;;;;;;;;5039354;28;20213;-65
2021/06/12 12:31:26;;;;;;;3.88;2.10;;;;;;;;;;5059513;28;20469;-65
2021/06/12 12:33:55;;;;;;;1.70;1.50;;;;;;;;;;5060842;28;20045;-65
2021/06/12 12:36:22;;;;;;;2.80;1.58;;;;;;;;;;5058474;28;20057;-65
2021/06/12 12:38:59;;;;;;;1.63;1.50;;;;;;;;;;5063065;28;20079;-65
2021/06/12 12:41:27;;;;;;;4.85;1.40;;;;;;;;;;5059428;28;20595;-65
2021/06/12 12:44:13;;;;;;;3.92;1.40;;;;;;;;;;5059646;28;20076;-65
2021/06/12 12:46:41;;;;;;;2.30;1.38;;;;;;;;;;5041569;28;20119;-67
2021/06/12 12:49:09;;;;;;;2.65;1.50;;;;;;;;;;5061776;28;20087;-67
2021/06/12 12:51:36;;;;;;;2.10;1.25;;;;;;;;;;5024945;28;20095;-67
2021/06/12 12:54:13;;;;;;;3.47;2.03;;;;;;;;;;5062346;28;20078;-66
2021/06/12 12:56:44;;;;;;;2.90;1.50;;;;;;;;;;5061661;28;20070;-66
2021/06/12 12:59:10;;;;;;;3.35;1.48;;;;;;;;;;5059792;28;20045;-65
2021/06/12 13:01:37;;;;;;;2.28;1.50;;;;;;;;;;5045559;28;20835;-71
2021/06/12 13:04:06;;;;;;;2.08;1.80;;;;;;;;;;5062351;28;20052;-65
2021/06/12 13:06:40;;;;;;;2.35;1.42;;;;;;;;;;5062588;28;20423;-66
2021/06/12 13:09:19;;;;;;;2.17;1.42;;;;;;;;;;5059225;28;20048;-68
2021/06/12 13:11:51;;;;;;;2.13;1.75;;;;;;;;;;5060507;28;20068;-65
2021/06/12 13:14:38;;;;;;;2.58;1.60;;;;;;;;;;5062759;28;20412;-65
2021/06/12 13:17:19;;;;;;;3.75;1.38;;;;;;;;;;5060559;28;20094;-67
2021/06/12 13:19:49;;;;;;;1.52;1.42;;;;;;;;;;5055427;28;20045;-65
2021/06/12 13:22:27;;;;;;;1.05;1.00;;;;;;;;;;5059518;28;20071;-67
2021/06/12 13:25:05;;;;;;;6.40;1.15;;;;;;;;;;5061428;28;20052;-66
2021/06/12 13:27:36;;;;;;;1.88;1.10;;;;;;;;;;5061180;28;20049;-65
2021/06/12 13:30:16;;;;;;;2.10;1.17;;;;;;;;;;5063087;28;20072;-65
2021/06/12 13:33:15;;;;;;;2.28;1.30;;;;;;;;;;5063319;28;20083;-65
2021/06/12 13:35:42;;;;;;;2.25;0.90;;;;;;;;;;5060378;28;20087;-66
2021/06/12 13:38:12;;;;;;;2.85;1.20;;;;;;;;;;5060713;28;20084;-66
2021/06/12 13:40:48;;;;;;;1.65;1.10;;;;;;;;;;5059318;28;20079;-65
2021/06/12 13:43:36;;;;;;;2.80;1.40;;;;;;;;;;5062141;28;20075;-66
2021/06/12 13:46:10;;;;;;;1.30;1.20;;;;;;;;;;5060864;28;20128;-66
2021/06/12 13:48:39;;;;;;;1.05;0.80;;;;;;;;;;5054241;28;20127;-65
2021/06/12 13:51:06;;;;;;;3.63;1.55;;;;;;;;;;5062403;28;20083;-65
2021/06/12 13:53:40;;;;;;;0.93;0.82;;;;;;;;;;5058016;28;20069;-66
2021/06/12 13:56:12;;;;;;;2.50;0.93;;;;;;;;;;5060048;28;20132;-66
2021/06/12 13:58:39;;;;;;;1.17;1.08;;;;;;;;;;5059757;28;20561;-66
2021/06/12 14:01:07;;;;;;;1.88;0.93;;;;;;;;;;5060563;28;20079;-68
2021/06/12 14:03:34;;;;;;;0.82;0.73;;;;;;;;;;5058823;28;20049;-65
2021/06/12 14:06:01;;;;;;;2.30;0.90;;;;;;;;;;5055995;28;20115;-65
2021/06/12 14:08:28;;;;;;;1.65;1.00;;;;;;;;;;5056981;28;20103;-65
2021/06/12 14:10:55;;;;;;;1.98;0.82;;;;;;;;;;5056297;28;20559;-66
2021/06/12 14:13:22;;;;;;;1.15;1.00;;;;;;;;;;5058905;28;20098;-67
2021/06/12 14:15:48;;;;;;;0.80;0.80;;;;;;;;;;5060668;28;20570;-67
2021/06/12 14:18:15;;;;;;;0.80;0.80;;;;;;;;;;5057778;28;20087;-66
2021/06/12 14:20:42;;;;;;;0.90;0.85;;;;;;;;;;5059426;28;20431;-65
2021/06/12 14:23:09;;;;;;;1.95;0.70;;;;;;;;;;5058966;28;20055;-68
2021/06/12 14:25:40;;;;;;;4.03;0.80;;;;;;;;;;5060156;28;20044;-65
2021/06/12 14:28:07;;;;;;;3.22;0.75;;;;;;;;;;5058567;28;20076;-65
2021/06/12 14:30:35;;;;;;;0.70;0.70;;;;;;;;;;5059858;28;20131;-67
2021/06/12 14:33:04;;;;;;;1.58;1.08;;;;;;;;;;5057195;28;20140;-66
2021/06/12 14:35:31;;;;;;;6.10;1.23;;;;;;;;;;5059442;28;20102;-67
2021/06/12 14:37:58;;;;;;;3.50;1.10;;;;;;;;;;5057107;28;20107;-66
2021/06/12 14:40:25;;;;;;;0.80;0.80;;;;;;;;;;5059700;28;20041;-65
2021/06/12 14:42:53;;;;;;;1.85;0.82;;;;;;;;;;5057167;28;20073;-68
2021/06/12 14:45:21;;;;;;;0.90;0.90;;;;;;;;;;5058786;28;20070;-68
2021/06/12 14:47:48;;;;;;;0.85;0.75;;;;;;;;;;5057314;28;20440;-67
2021/06/12 14:50:14;;;;;;;1.63;0.80;;;;;;;;;;5061918;28;20068;-66